Time;durP1;ratioP1;P1;durP2;ratioP2;P2;SDS_P1;SDS_P2;PMS_P1;PMS_P2;Temp;Humidity;BMP_temperature;BMP_pressure;BME280_temperature;BME280_humidity;BME280_pressure;Samples;Min_cycle;Max_cycle;Signal;HPM_P1;HPM_P2
2022/11/22 00:01:57;;;;;;;35.97;19.05;;;;;;;;;;5043036;28;20033;-55
2022/11/22 00:04:23;;;;;;;37.67;19.10;;;;;;;;;;5043012;28;20032;-55
2022/11/22 00:06:48;;;;;;;36.17;18.50;;;4.80;99.90;;;;;;5042842;28;20571;-56
2022/11/22 00:09:14;;;;;;;30.35;16.67;;;;;;;;;;5038817;28;20094;-56
2022/11/22 00:11:40;;;;;;;35.88;18.13;;;4.90;99.90;;;;;;5046534;28;20045;-56
2022/11/22 00:14:06;;;;;;;29.73;15.75;;;;;;;;;;5045047;28;20116;-56
2022/11/22 00:16:33;;;;;;;34.78;18.38;;;;;;;;;;5040096;28;20491;-56
2022/11/22 00:18:59;;;;;;;32.45;16.08;;;4.90;99.90;;;;;;5045383;28;20040;-56
2022/11/22 00:21:24;;;;;;;28.30;16.25;;;5.00;99.90;;;;;;5042146;28;20451;-55
2022/11/22 00:23:54;;;;;;;34.25;17.02;;;;;;;;;;5042957;28;20437;-56
2022/11/22 00:26:20;;;;;;;31.48;15.07;;;;;;;;;;5043733;28;20036;-56
2022/11/22 00:28:46;;;;;;;30.27;16.08;;;;;;;;;;5046582;28;20037;-56
2022/11/22 00:31:12;;;;;;;31.05;14.77;;;5.00;99.90;;;;;;5044665;28;20087;-56
2022/11/22 00:33:37;;;;;;;30.50;16.55;;;4.90;99.90;;;;;;5037422;28;20388;-56
2022/11/22 00:36:03;;;;;;;26.00;15.38;;;;;;;;;;5041199;28;20119;-56
2022/11/22 00:38:29;;;;;;;28.52;15.48;;;;;;;;;;5024163;28;20064;-56
2022/11/22 00:40:55;;;;;;;26.88;16.23;;;;;;;;;;5050494;28;20041;-56
2022/11/22 00:43:21;;;;;;;26.63;14.82;;;;;;;;;;5047973;28;20033;-57
2022/11/22 00:45:47;;;;;;;25.92;14.75;;;;;;;;;;5037585;28;20391;-56
2022/11/22 00:48:13;;;;;;;29.88;16.45;;;4.90;99.90;;;;;;5036540;28;20480;-56
2022/11/22 00:50:39;;;;;;;27.02;14.70;;;4.90;99.90;;;;;;5041640;28;20064;-56
2022/11/22 00:53:05;;;;;;;28.95;15.70;;;;;;;;;;5049151;28;20512;-56
2022/11/22 00:55:31;;;;;;;31.88;15.73;;;;;;;;;;5045847;28;20033;-56
2022/11/22 00:57:57;;;;;;;28.98;14.32;;;;;;;;;;5044629;28;20029;-56
2022/11/22 01:00:23;;;;;;;25.73;13.85;;;;;;;;;;5047648;28;20519;-56
2022/11/22 01:02:49;;;;;;;34.63;14.82;;;;;;;;;;5046388;28;20056;-57
2022/11/22 01:05:16;;;;;;;26.23;14.07;;;4.90;99.90;;;;;;5029281;28;20045;-56
2022/11/22 01:07:42;;;;;;;26.85;14.65;;;4.80;99.90;;;;;;5048884;28;20055;-56
2022/11/22 01:10:09;;;;;;;29.77;14.48;;;;;;;;;;5046790;28;20115;-55
2022/11/22 01:12:35;;;;;;;25.35;13.57;;;;;;;;;;5033867;28;20037;-56
2022/11/22 01:15:01;;;;;;;25.17;13.35;;;4.90;99.90;;;;;;5044032;28;20048;-56
2022/11/22 01:17:27;;;;;;;26.70;14.38;;;4.90;99.90;;;;;;5034731;28;20495;-55
2022/11/22 01:19:52;;;;;;;28.85;14.40;;;4.90;99.90;;;;;;5020775;28;20041;-55
2022/11/22 01:22:18;;;;;;;25.65;14.40;;;;;;;;;;5047556;28;20079;-57
2022/11/22 01:24:44;;;;;;;26.85;14.13;;;;;;;;;;5049522;28;20603;-56
2022/11/22 01:27:10;;;;;;;26.25;14.70;;;;;;;;;;5041054;28;20032;-56
2022/11/22 01:29:36;;;;;;;26.73;12.93;;;;;;;;;;5050102;28;20094;-56
2022/11/22 01:32:02;;;;;;;27.70;14.15;;;5.00;99.90;;;;;;5043818;28;20242;-56
2022/11/22 01:34:28;;;;;;;27.42;13.68;;;;;;;;;;5047483;28;20667;-56
2022/11/22 01:36:54;;;;;;;25.63;14.15;;;;;;;;;;5046251;28;20120;-56
2022/11/22 01:39:20;;;;;;;24.08;13.15;;;4.80;99.90;;;;;;5047419;28;20040;-56
2022/11/22 01:41:46;;;;;;;22.63;12.85;;;;;;;;;;5041813;28;20041;-56
2022/11/22 01:44:18;;;;;;;24.20;13.80;;;;;;;;;;5032186;28;20041;-56
2022/11/22 01:46:44;;;;;;;22.50;12.60;;;;;;;;;;5039978;28;20041;-55
2022/11/22 01:49:13;;;;;;;23.50;13.43;;;;;;;;;;5042028;28;20065;-56
2022/11/22 01:51:47;;;;;;;29.85;14.43;;;4.40;99.90;;;;;;5040499;28;20068;-56
2022/11/22 01:54:18;;;;;;;25.17;13.45;;;5.40;99.90;;;;;;5094747;22;20051;-71
2022/11/22 01:56:49;;;;;;;22.48;11.95;;;5.20;99.90;;;;;;5040655;28;20048;-71
2022/11/22 01:59:18;;;;;;;24.02;12.82;;;4.30;99.90;;;;;;5052620;28;20572;-71
2022/11/22 02:01:44;;;;;;;25.27;13.40;;;;;;;;;;5039961;28;20092;-71
2022/11/22 02:04:15;;;;;;;23.48;13.30;;;4.40;99.90;;;;;;5054115;28;20077;-70
2022/11/22 02:06:53;;;;;;;20.95;12.18;;;;;;;;;;5030613;28;20049;-70
2022/11/22 02:09:20;;;;;;;24.67;13.25;;;;;;;;;;5034302;28;20045;-70
2022/11/22 02:11:48;;;;;;;24.52;13.30;;;;;;;;;;5033429;28;20048;-70
2022/11/22 02:14:14;;;;;;;22.58;13.27;;;;;;;;;;5062263;28;20455;-70
2022/11/22 02:16:42;;;;;;;24.50;14.20;;;4.30;99.90;;;;;;5053616;28;20116;-71
2022/11/22 02:19:25;;;;;;;30.60;14.80;;;4.20;99.90;;;;;;5044966;28;20037;-71
2022/11/22 02:21:54;;;;;;;21.48;12.88;;;;;;;;;;5050148;28;20126;-71
2022/11/22 02:24:26;;;;;;;25.27;13.65;;;;;;;;;;5041689;28;20033;-71
2022/11/22 02:26:52;;;;;;;24.92;14.15;;;4.70;99.90;;;;;;5049821;28;20520;-71
2022/11/22 02:29:17;;;;;;;24.98;13.43;;;4.90;99.90;;;;;;5034571;28;20036;-71
2022/11/22 02:31:45;;;;;;;26.70;14.02;;;;;;;;;;5051142;28;20033;-71
2022/11/22 02:34:12;;;;;;;23.55;13.65;;;;;;;;;;5027158;28;20056;-71
2022/11/22 02:36:40;;;;;;;25.75;15.63;;;;;;;;;;5050114;28;20033;-71
2022/11/22 02:39:07;;;;;;;24.95;13.38;;;;;;;;;;5033790;28;20417;-71
2022/11/22 02:41:33;;;;;;;23.70;14.10;;;;;;;;;;5030584;28;20064;-71
2022/11/22 02:43:59;;;;;;;26.00;14.57;;;4.80;99.90;;;;;;5049570;28;20541;-72
2022/11/22 02:46:24;;;;;;;26.63;14.43;;;4.90;99.90;;;;;;5033854;28;20116;-71
2022/11/22 02:48:50;;;;;;;28.65;15.30;;;;;;;;;;5050972;28;20079;-69
2022/11/22 02:51:18;;;;;;;25.90;13.95;;;4.90;99.90;;;;;;5017355;28;20033;-69
2022/11/22 02:53:45;;;;;;;24.98;14.55;;;;;;;;;;5051843;28;20044;-70
2022/11/22 02:56:11;;;;;;;26.48;15.43;;;;;;;;;;5027752;28;20037;-69
2022/11/22 02:58:37;;;;;;;30.40;15.10;;;;;;;;;;5026874;28;20422;-69
2022/11/22 03:01:03;;;;;;;25.30;14.95;;;;;;;;;;5028141;28;20037;-70
2022/11/22 03:03:30;;;;;;;24.10;14.52;;;;;;;;;;5024862;28;20512;-70
2022/11/22 03:05:56;;;;;;;23.52;13.93;;;;;;;;;;5050595;28;20071;-70
2022/11/22 03:08:22;;;;;;;27.23;14.57;;;;;;;;;;5045765;28;20100;-69
2022/11/22 03:10:48;;;;;;;25.67;14.73;;;;;;;;;;5050804;28;20097;-69
2022/11/22 03:13:14;;;;;;;23.83;13.98;;;;;;;;;;5032032;28;20041;-69
2022/11/22 03:15:40;;;;;;;22.52;13.50;;;;;;;;;;5043026;28;20038;-70
2022/11/22 03:18:06;;;;;;;26.52;15.40;;;4.80;99.90;;;;;;5030727;28;20033;-69
2022/11/22 03:20:32;;;;;;;26.90;14.93;;;5.00;99.90;;;;;;5051181;28;20441;-69
2022/11/22 03:23:02;;;;;;;22.15;13.88;;;;;;;;;;5045682;28;20066;-69
2022/11/22 03:25:28;;;;;;;25.38;13.65;;;;;;;;;;5030177;28;20541;-69
2022/11/22 03:27:54;;;;;;;26.75;15.63;;;;;;;;;;5033228;28;20037;-69
2022/11/22 03:30:20;;;;;;;24.35;14.73;;;;;;;;;;5050447;28;20037;-69
2022/11/22 03:32:46;;;;;;;24.05;15.50;;;;;;;;;;5051565;28;20047;-69
2022/11/22 03:35:12;;;;;;;26.67;14.55;;;;;;;;;;5049459;28;20040;-69
2022/11/22 03:37:38;;;;;;;24.20;14.43;;;;;;;;;;5050765;28;20692;-68
2022/11/22 03:40:04;;;;;;;26.65;14.93;;;;;;;;;;5037983;28;20506;-68
2022/11/22 03:42:30;;;;;;;25.05;14.32;;;;;;;;;;5053106;28;20086;-68
2022/11/22 03:44:56;;;;;;;25.83;15.15;;;;;;;;;;5025770;28;20650;-68
2022/11/22 03:47:22;;;;;;;25.30;15.00;;;;;;;;;;5038111;28;20048;-68
2022/11/22 03:49:48;;;;;;;25.27;15.27;;;5.00;99.90;;;;;;5032795;28;20052;-68
2022/11/22 03:52:14;;;;;;;28.05;15.20;;;;;;;;;;5050794;28;20490;-68
2022/11/22 03:54:40;;;;;;;26.73;15.73;;;5.00;99.90;;;;;;5050796;28;20126;-68
2022/11/22 03:57:06;;;;;;;23.15;14.25;;;;;;;;;;5055266;28;20075;-68
2022/11/22 03:59:32;;;;;;;26.30;15.13;;;;;;;;;;5050237;28;20407;-67
2022/11/22 04:01:58;;;;;;;25.77;15.77;;;;;;;;;;5050493;28;20040;-67
2022/11/22 04:04:24;;;;;;;28.58;15.55;;;;;;;;;;5048675;28;20517;-68
2022/11/22 04:06:50;;;;;;;23.75;14.75;;;;;;;;;;5031346;28;20049;-67
2022/11/22 04:09:16;;;;;;;25.45;16.27;;;;;;;;;;5031786;28;20440;-69
2022/11/22 04:11:42;;;;;;;27.75;15.35;;;5.10;99.90;;;;;;5049004;28;20037;-70
2022/11/22 04:16:55;;;;;;;25.60;16.70;;;;;;;;;;5049755;28;20045;-67
2022/11/22 04:19:21;;;;;;;24.98;15.35;;;;;;;;;;5021342;28;20067;-67
2022/11/22 04:21:46;;;;;;;26.67;15.13;;;5.20;99.90;;;;;;5050328;28;20068;-68
2022/11/22 04:26:57;;;;;;;23.80;14.97;;;5.20;99.90;;;;;;5060295;28;20048;-68
2022/11/22 04:29:23;;;;;;;24.48;15.23;;;5.30;99.90;;;;;;5039669;28;20120;-69
2022/11/22 04:34:33;;;;;;;;;;;4.60;99.90;;;;;;5050522;28;20116;-67
2022/11/22 04:37:00;;;;;;;22.80;14.55;;;5.20;99.90;;;;;;5052227;28;20003;-67
2022/11/22 04:39:25;;;;;;;25.48;16.23;;;5.20;99.90;;;;;;5050103;28;20063;-67
2022/11/22 04:44:39;;;;;;;26.10;15.20;;;;;;;;;;5032021;28;20037;-67
2022/11/22 04:44:40;;;;;;;23.02;15.02;;;5.20;99.90;;;;;;5036892;28;20146;-67
2022/11/22 04:47:09;;;;;;;25.67;15.23;;;;;;;;;;5053418;28;20044;-67
2022/11/22 04:49:35;;;;;;;22.65;15.40;;;5.50;99.90;;;;;;5043879;28;20117;-67
2022/11/22 04:54:46;;;;;;;26.33;15.27;;;5.40;99.90;;;;;;5048739;28;20041;-67
2022/11/22 04:57:12;;;;;;;24.02;15.75;;;;;;;;;;5054540;28;20052;-67
2022/11/22 04:59:38;;;;;;;28.83;16.42;;;;;;;;;;5031844;28;20072;-67
2022/11/22 05:02:04;;;;;;;25.70;16.35;;;;;;;;;;5049723;28;20414;-67
2022/11/22 05:04:30;;;;;;;24.70;15.90;;;;;;;;;;5048631;28;20043;-68
2022/11/22 05:06:56;;;;;;;27.05;16.88;;;;;;;;;;5049617;28;20037;-67
2022/11/22 05:09:23;;;;;;;27.48;17.17;;;;;;;;;;5030466;28;20128;-67
2022/11/22 05:11:49;;;;;;;22.80;14.88;;;;;;;;;;5032044;28;20099;-67
2022/11/22 05:14:15;;;;;;;28.83;16.50;;;;;;;;;;5047222;28;20041;-67
2022/11/22 05:16:40;;;;;;;27.20;15.88;;;5.40;99.90;;;;;;5034510;28;20044;-67
2022/11/22 05:19:06;;;;;;;25.83;16.50;;;5.40;99.90;;;;;;5051362;28;20436;-67
2022/11/22 05:21:34;;;;;;;27.45;16.42;;;;;;;;;;5057287;28;20529;-67
2022/11/22 05:24:00;;;;;;;29.42;16.52;;;;;;;;;;5052957;28;20055;-67
2022/11/22 05:26:28;;;;;;;26.70;16.60;;;;;;;;;;5048908;28;20037;-67
2022/11/22 05:28:54;;;;;;;26.15;15.73;;;;;;;;;;5052299;28;20379;-67
2022/11/22 05:31:22;;;;;;;28.02;15.57;;;5.50;99.90;;;;;;5051497;28;20594;-67
2022/11/22 05:33:48;;;;;;;27.38;16.05;;;;;;;;;;5038760;28;20077;-67
2022/11/22 05:36:15;;;;;;;28.60;16.25;;;;;;;;;;5030266;28;20037;-67
2022/11/22 05:38:41;;;;;;;25.77;15.07;;;;;;;;;;5038182;28;20590;-67
2022/11/22 05:41:11;;;;;;;25.15;15.50;;;;;;;;;;5052409;28;20044;-67
2022/11/22 05:43:37;;;;;;;29.13;16.33;;;;;;;;;;5059496;28;20047;-67
2022/11/22 05:46:13;;;;;;;25.75;16.20;;;;;;;;;;5058194;28;20040;-67
2022/11/22 05:48:41;;;;;;;24.58;14.55;;;5.80;99.90;;;;;;5046680;28;20051;-67
2022/11/22 05:51:13;;;;;;;28.73;16.48;;;5.90;99.90;;;;;;5042085;28;20061;-67
2022/11/22 05:53:39;;;;;;;33.58;16.75;;;5.60;99.90;;;;;;5035492;28;20038;-67
2022/11/22 05:56:08;;;;;;;25.05;15.05;;;;;;;;;;5038554;28;20353;-67
2022/11/22 05:58:34;;;;;;;30.17;16.05;;;;;;;;;;5039471;28;20149;-67
2022/11/22 06:01:20;;;;;;;26.55;15.25;;;;;;;;;;5034784;28;20641;-67
2022/11/22 06:03:46;;;;;;;24.05;15.55;;;;;;;;;;5046733;28;20136;-67
2022/11/22 06:06:12;;;;;;;23.02;13.93;;;;;;;;;;5038496;28;20451;-66
2022/11/22 06:08:44;;;;;;;23.98;14.27;;;;;;;;;;5038640;28;20045;-66
2022/11/22 06:11:10;;;;;;;24.38;12.90;;;;;;;;;;5054069;28;20536;-67
2022/11/22 06:13:39;;;;;;;22.75;14.65;;;;;;;;;;5033261;28;20037;-64
2022/11/22 06:16:07;;;;;;;21.30;13.98;;;5.60;99.90;;;;;;5051521;28;20083;-66
2022/11/22 06:18:33;;;;;;;25.92;15.32;;;5.50;99.90;;;;;;5049446;28;20025;-66
2022/11/22 06:21:04;;;;;;;27.10;15.75;;;;;;;;;;5050816;28;20044;-66
2022/11/22 06:23:30;;;;;;;24.35;14.35;;;;;;;;;;5034112;28;20045;-66
2022/11/22 06:26:05;;;;;;;26.70;14.60;;;5.40;99.90;;;;;;5057007;28;20079;-66
2022/11/22 06:28:32;;;;;;;22.98;14.63;;;4.90;99.90;;;;;;5059753;28;20448;-66
2022/11/22 06:31:24;;;;;;;25.75;14.63;;;;;;;;;;5050865;28;20033;-66
2022/11/22 06:33:52;;;;;;;24.80;14.43;;;4.90;99.90;;;;;;5039782;28;20049;-65
2022/11/22 06:36:20;;;;;;;30.35;14.63;;;5.10;99.90;;;;;;5057047;28;20033;-66
2022/11/22 06:38:46;;;;;;;26.13;14.95;;;4.60;99.90;;;;;;5050874;28;20119;-65
2022/11/22 06:41:16;;;;;;;27.08;15.15;;;;;;;;;;5034218;28;20164;-66
2022/11/22 06:43:43;;;;;;;28.00;14.40;;;;;;;;;;5050948;28;20041;-66
2022/11/22 06:46:09;;;;;;;24.55;13.88;;;;;;;;;;5050669;28;20122;-65
2022/11/22 06:48:37;;;;;;;23.60;13.82;;;4.30;99.90;;;;;;5050935;28;20037;-65
2022/11/22 06:51:13;;;;;;;24.35;13.32;;;4.90;99.90;;;;;;5058315;28;20124;-65
2022/11/22 06:53:39;;;;;;;23.33;13.35;;;4.10;99.90;;;;;;5051403;28;20049;-66
2022/11/22 06:56:09;;;;;;;31.45;15.77;;;;;;;;;;5051188;28;20568;-65
2022/11/22 06:58:35;;;;;;;28.17;15.18;;;4.10;99.90;;;;;;5050981;28;20064;-65
2022/11/22 07:01:03;;;;;;;28.90;14.75;;;4.00;99.90;;;;;;5033539;28;20515;-65
2022/11/22 07:03:29;;;;;;;27.88;13.00;;;4.50;99.90;;;;;;5051562;28;20059;-65
2022/11/22 07:05:55;;;;;;;26.50;12.60;;;;;;;;;;5051210;28;20036;-65
2022/11/22 07:08:21;;;;;;;29.25;12.90;;;;;;;;;;5048502;28;20838;-65
2022/11/22 07:10:47;;;;;;;26.92;14.15;;;;;;;;;;5050080;28;20448;-65
2022/11/22 07:13:13;;;;;;;23.55;13.13;;;;;;;;;;5048707;28;20041;-65
2022/11/22 07:15:39;;;;;;;25.33;13.73;;;;;;;;;;5049404;28;20033;-65
2022/11/22 07:18:06;;;;;;;28.27;13.25;;;;;;;;;;5045438;28;20037;-65
2022/11/22 07:20:32;;;;;;;27.23;12.38;;;;;;;;;;5054604;28;20040;-65
2022/11/22 07:22:57;;;;;;;26.27;11.93;;;4.30;99.90;;;;;;5050850;28;20044;-65
2022/11/22 07:25:23;;;;;;;26.83;13.07;;;4.30;99.90;;;;;;5058164;28;20413;-65
2022/11/22 07:27:51;;;;;;;25.90;10.98;;;;;;;;;;5032081;28;20041;-65
2022/11/22 07:30:17;;;;;;;21.38;10.55;;;4.30;99.90;;;;;;5032866;28;20482;-65
2022/11/22 07:32:46;;;;;;;22.10;11.43;;;;;;;;;;5050982;28;20048;-65
2022/11/22 07:35:12;;;;;;;25.73;11.63;;;4.50;99.90;;;;;;5050679;28;20394;-65
2022/11/22 07:37:38;;;;;;;20.73;10.95;;;4.60;99.90;;;;;;5050054;28;20043;-65
2022/11/22 07:40:04;;;;;;;26.10;11.55;;;;;;;;;;5050455;28;20399;-65
2022/11/22 07:42:30;;;;;;;21.67;10.70;;;;;;;;;;5048995;28;20402;-65
2022/11/22 07:44:56;;;;;;;23.77;11.32;;;;;;;;;;5050467;28;20033;-65
2022/11/22 07:47:22;;;;;;;23.33;10.95;;;;;;;;;;5030772;28;20090;-65
2022/11/22 07:49:48;;;;;;;21.67;10.35;;;;;;;;;;5032615;28;20740;-65
2022/11/22 07:52:14;;;;;;;30.95;10.63;;;;;;;;;;5049270;28;20029;-65
2022/11/22 07:54:39;;;;;;;29.70;10.95;;;4.50;99.90;;;;;;5049704;28;20036;-65
2022/11/22 07:57:05;;;;;;;22.67;9.13;;;;;;;;;;5111429;22;20518;-56
2022/11/22 07:59:31;;;;;;;15.65;8.13;;;4.50;99.90;;;;;;5056284;28;20095;-57
2022/11/22 08:01:57;;;;;;;18.20;8.20;;;;;;;;;;5055244;28;20048;-56
2022/11/22 08:04:23;;;;;;;19.02;8.57;;;;;;;;;;5058525;28;20037;-56
2022/11/22 08:06:49;;;;;;;24.92;7.85;;;4.80;99.90;;;;;;5031275;28;20383;-57
2022/11/22 08:09:15;;;;;;;23.10;7.45;;;;;;;;;;5046786;28;20094;-57
2022/11/22 08:11:41;;;;;;;15.70;7.53;;;;;;;;;;5042968;28;20037;-56
2022/11/22 08:14:06;;;;;;;19.05;7.47;;;4.90;99.90;;;;;;5023585;28;20090;-56
2022/11/22 08:16:32;;;;;;;14.40;6.65;;;;;;;;;;5045346;28;20111;-56
2022/11/22 08:18:58;;;;;;;16.35;6.03;;;;;;;;;;5039841;28;20044;-57
2022/11/22 08:21:24;;;;;;;15.02;6.70;;;;;;;;;;5045939;28;20041;-57
2022/11/22 08:23:50;;;;;;;17.13;6.63;;;;;;;;;;5042210;28;20054;-57
2022/11/22 08:26:19;;;;;;;19.20;5.78;;;;;;;;;;5047036;28;20090;-56
2022/11/22 08:28:45;;;;;;;15.02;5.57;;;;;;;;;;5041572;28;20045;-56
2022/11/22 08:31:13;;;;;;;18.23;6.28;;;;;;;;;;5042075;28;20047;-57
2022/11/22 08:33:39;;;;;;;16.25;6.55;;;;;;;;;;5044705;28;20098;-55
2022/11/22 08:36:06;;;;;;;15.02;6.13;;;;;;;;;;5028414;28;20033;-57
2022/11/22 08:38:32;;;;;;;13.52;5.57;;;;;;;;;;5043750;28;20029;-57
2022/11/22 08:40:58;;;;;;;16.70;6.60;;;;;;;;;;5043913;28;20040;-57
2022/11/22 08:43:24;;;;;;;12.00;5.05;;;;;;;;;;5043974;28;20479;-56
2022/11/22 08:45:55;;;;;;;12.73;5.03;;;;;;;;;;5040129;28;20486;-57
2022/11/22 08:48:21;;;;;;;14.15;6.00;;;;;;;;;;5045233;28;20037;-57
2022/11/22 08:50:55;;;;;;;12.65;5.00;;;;;;;;;;5041791;28;20041;-57
2022/11/22 08:53:21;;;;;;;17.25;4.97;;;;;;;;;;5030521;28;20117;-57
2022/11/22 08:55:47;;;;;;;12.48;4.15;;;;;;;;;;5047650;28;20041;-57
2022/11/22 08:58:20;;;;;;;14.50;4.90;;;;;;;;;;5050464;28;20078;-57
2022/11/22 09:00:46;;;;;;;9.48;4.60;;;5.50;99.90;;;;;;5046728;28;20049;-57
2022/11/22 09:03:11;;;;;;;11.63;5.55;;;;;;;;;;5046364;28;20403;-57
2022/11/22 09:05:37;;;;;;;14.98;5.15;;;;;;;;;;5048584;28;20126;-57
2022/11/22 09:08:04;;;;;;;15.88;5.68;;;;;;;;;;5044395;28;20037;-57
2022/11/22 09:10:29;;;;;;;15.65;5.30;;;5.40;99.90;;;;;;5049903;28;20510;-56
2022/11/22 09:12:55;;;;;;;11.45;4.55;;;;;;;;;;5046778;28;20065;-57
2022/11/22 09:15:21;;;;;;;12.40;5.30;;;5.40;99.90;;;;;;5051377;28;20167;-57
2022/11/22 09:17:47;;;;;;;12.18;4.35;;;;;;;;;;5045626;28;20119;-57
2022/11/22 09:20:13;;;;;;;13.75;4.60;;;;;;;;;;5028457;28;20029;-57
2022/11/22 09:22:39;;;;;;;11.77;4.82;;;;;;;;;;5031293;28;20391;-57
2022/11/22 09:25:05;;;;;;;8.85;4.45;;;;;;;;;;5045682;28;20038;-57
2022/11/22 09:27:32;;;;;;;12.18;4.22;;;5.30;99.90;;;;;;5048752;28;20036;-57
2022/11/22 09:29:58;;;;;;;13.10;4.60;;;5.50;99.90;;;;;;5047230;28;20041;-56
2022/11/22 09:32:25;;;;;;;11.63;5.07;;;;;;;;;;5050658;28;20565;-57
2022/11/22 09:34:51;;;;;;;13.25;4.72;;;5.70;99.90;;;;;;5027257;28;20041;-56
2022/11/22 09:37:18;;;;;;;13.02;4.43;;;5.70;99.90;;;;;;5045716;28;20059;-56
2022/11/22 09:39:47;;;;;;;11.80;4.50;;;5.10;99.90;;;;;;5047670;28;20041;-57
2022/11/22 09:42:13;;;;;;;9.30;4.22;;;5.70;99.90;;;;;;5043051;28;20570;-56
2022/11/22 09:44:39;;;;;;;11.40;4.85;;;;;;;;;;5043660;28;20137;-56
2022/11/22 09:47:23;;;;;;;10.88;4.28;;;;;;;;;;5049310;28;20395;-57
2022/11/22 09:50:20;;;;;;;18.88;7.00;;;5.90;99.90;;;;;;5027450;28;20087;-56
2022/11/22 09:52:50;;;;;;;8.18;3.22;;;;;;;;;;5047001;28;20562;-57
2022/11/22 09:55:22;;;;;;;11.73;4.45;;;;;;;;;;5046739;28;20051;-57
2022/11/22 09:57:55;;;;;;;11.20;4.28;;;5.70;99.90;;;;;;5049070;28;20139;-56
2022/11/22 10:00:26;;;;;;;10.70;4.53;;;5.80;99.90;;;;;;5047391;28;20090;-56
2022/11/22 10:02:55;;;;;;;14.00;5.03;;;;;;;;;;5042640;28;20044;-57
2022/11/22 10:05:28;;;;;;;12.38;3.80;;;5.80;99.90;;;;;;5047101;28;20029;-56
2022/11/22 10:07:57;;;;;;;10.95;4.65;;;;;;;;;;5044033;28;20041;-57
2022/11/22 10:10:40;;;;;;;12.07;4.57;;;5.90;99.90;;;;;;5048822;28;20068;-57
2022/11/22 10:13:33;;;;;;;9.75;3.72;;;5.90;99.90;;;;;;5046163;28;20037;-55
2022/11/22 10:16:03;;;;;;;8.13;3.90;;;;;;;;;;5030340;28;20041;-55
2022/11/22 10:18:43;;;;;;;8.23;3.90;;;5.80;99.90;;;;;;5040773;28;20038;-56
2022/11/22 10:21:12;;;;;;;11.00;3.72;;;5.90;99.90;;;;;;5030787;28;20111;-54
2022/11/22 10:23:41;;;;;;;8.38;4.25;;;6.60;99.90;;;;;;5025234;28;20128;-55
2022/11/22 10:26:33;;;;;;;9.13;3.70;;;5.90;99.90;;;;;;5049151;28;20041;-55
2022/11/22 10:29:08;;;;;;;9.10;4.07;;;6.70;99.90;;;;;;5026384;28;20061;-56
2022/11/22 10:31:42;;;;;;;;;;;6.40;99.90;;;;;;5049253;28;20056;-55
2022/11/22 10:34:33;;;;;;;9.35;3.78;;;6.20;99.90;;;;;;5046580;28;19917;-55
2022/11/22 10:37:04;;;;;;;16.00;5.93;;;;;;;;;;5035313;28;20033;-57
2022/11/22 10:39:50;;;;;;;10.98;4.60;;;;;;;;;;5047333;28;20486;-55
2022/11/22 10:42:33;;;;;;;10.00;3.22;;;5.90;99.90;;;;;;5037578;28;20044;-56
2022/11/22 10:45:18;;;;;;;7.60;3.30;;;;;;;;;;5029409;28;20111;-53
2022/11/22 10:47:58;;;;;;;9.40;3.70;;;6.00;99.90;;;;;;5044189;28;20519;-55
2022/11/22 10:50:44;;;;;;;9.63;3.97;;;6.80;99.90;;;;;;5044273;28;20405;-54
2022/11/22 10:53:29;;;;;;;10.25;3.83;;;6.10;99.90;;;;;;5036370;28;20041;-53
2022/11/22 10:56:04;;;;;;;11.05;3.30;;;7.00;99.90;;;;;;5041264;28;20044;-54
2022/11/22 10:58:36;;;;;;;8.38;4.07;;;;;;;;;;5030352;28;20037;-55
2022/11/22 11:01:18;;;;;;;10.15;3.78;;;;;;;;;;5024239;28;20100;-55
2022/11/22 11:03:47;;;;;;;10.32;3.28;;;;;;;;;;5048391;28;20449;-55
2022/11/22 11:06:16;;;;;;;9.75;3.17;;;;;;;;;;5041880;28;20052;-55
2022/11/22 11:08:48;;;;;;;11.18;3.40;;;;;;;;;;5048287;28;20402;-54
2022/11/22 11:11:15;;;;;;;8.43;2.63;;;;;;;;;;5043626;28;20072;-56
2022/11/22 11:13:48;;;;;;;8.55;3.42;;;6.20;99.90;;;;;;5048028;28;20093;-56
2022/11/22 11:16:16;;;;;;;10.50;3.70;;;;;;;;;;5027408;28;20041;-55
2022/11/22 11:18:55;;;;;;;9.80;3.22;;;;;;;;;;5041289;28;20046;-57
2022/11/22 11:21:21;;;;;;;11.90;3.40;;;;;;;;;;5045743;28;20112;-57
2022/11/22 11:23:47;;;;;;;6.85;3.35;;;6.60;99.90;;;;;;5042911;28;20128;-57
2022/11/22 11:26:24;;;;;;;7.75;3.03;;;6.80;99.90;;;;;;5048473;28;20052;-57
2022/11/22 11:28:51;;;;;;;7.68;3.00;;;;;;;;;;5043987;28;20063;-56
2022/11/22 11:31:17;;;;;;;6.82;3.30;;;;;;;;;;5049236;28;20446;-55
2022/11/22 11:33:44;;;;;;;8.20;3.30;;;;;;;;;;5044252;28;20122;-56
2022/11/22 11:36:13;;;;;;;7.55;3.70;;;;;;;;;;5042834;28;20067;-54
2022/11/22 11:38:42;;;;;;;9.60;3.03;;;7.20;99.90;;;;;;5044259;28;20041;-57
2022/11/22 11:41:17;;;;;;;10.80;4.43;;;;;;;;;;5026119;28;20631;-56
2022/11/22 11:43:44;;;;;;;8.52;3.15;;;;;;;;;;5042798;28;20098;-56
2022/11/22 11:46:20;;;;;;;10.32;3.30;;;;;;;;;;5042726;28;20049;-56
2022/11/22 11:48:46;;;;;;;9.40;2.90;;;;;;;;;;5044651;28;20048;-55
2022/11/22 11:51:27;;;;;;;9.05;2.85;;;;;;;;;;5044012;28;20044;-57
2022/11/22 11:54:05;;;;;;;8.57;2.90;;;7.20;99.90;;;;;;5018762;28;20029;-56
2022/11/22 11:56:39;;;;;;;7.00;2.35;;;;;;;;;;5046608;28;20086;-56
2022/11/22 11:59:10;;;;;;;7.90;2.55;;;;;;;;;;5044954;28;20393;-55
2022/11/22 12:01:40;;;;;;;11.23;2.92;;;;;;;;;;5040512;28;20041;-53
2022/11/22 12:04:17;;;;;;;8.48;3.10;;;7.30;99.90;;;;;;5047024;28;20033;-57
2022/11/22 12:06:52;;;;;;;8.93;3.00;;;;;;;;;;5041976;28;20053;-56
2022/11/22 12:09:35;;;;;;;9.25;2.72;;;7.50;99.90;;;;;;5046142;28;20044;-56
2022/11/22 12:12:12;;;;;;;9.80;3.05;;;;;;;;;;5025303;28;20036;-55
2022/11/22 12:14:40;;;;;;;6.43;2.75;;;7.10;99.90;;;;;;5045753;28;20124;-57
2022/11/22 12:17:10;;;;;;;8.50;2.78;;;;;;;;;;5044024;28;20041;-57
2022/11/22 12:19:47;;;;;;;7.72;2.60;;;;;;;;;;5040144;28;20388;-56
2022/11/22 12:22:23;;;;;;;6.43;2.40;;;;;;;;;;5045652;28;20517;-57
2022/11/22 12:24:54;;;;;;;7.22;2.60;;;;;;;;;;5042209;28;20044;-56
2022/11/22 12:27:20;;;;;;;6.72;2.25;;;;;;;;;;5044853;28;20040;-56
2022/11/22 12:29:46;;;;;;;7.57;2.20;;;7.30;99.90;;;;;;5025878;28;20091;-56
2022/11/22 12:32:19;;;;;;;5.40;2.30;;;;;;;;;;5047290;28;20041;-56
2022/11/22 12:34:44;;;;;;;7.97;2.70;;;7.40;99.90;;;;;;5042966;28;20376;-57
2022/11/22 12:37:19;;;;;;;7.63;2.35;;;;;;;;;;5041923;28;20035;-57
2022/11/22 12:39:55;;;;;;;5.45;2.30;;;;;;;;;;5044723;28;20395;-57
2022/11/22 12:42:26;;;;;;;8.93;2.50;;;;;;;;;;5040263;28;20044;-57
2022/11/22 12:45:02;;;;;;;11.70;2.30;;;;;;;;;;5042062;28;20037;-56
2022/11/22 12:47:39;;;;;;;7.88;2.88;;;;;;;;;;5043032;28;20042;-57
2022/11/22 12:50:52;;;;;;;8.00;2.60;;;7.60;99.90;;;;;;5042098;28;20405;-57
2022/11/22 12:53:21;;;;;;;7.40;2.80;;;;;;;;;;5034511;28;20056;-57
2022/11/22 12:56:05;;;;;;;7.13;2.30;;;;;;;;;;5025236;28;20045;-55
2022/11/22 12:58:57;;;;;;;8.90;2.50;;;;;;;;;;5046415;28;20048;-56
2022/11/22 13:01:36;;;;;;;9.63;2.50;;;8.10;99.90;;;;;;5035036;28;20072;-57
2022/11/22 13:04:08;;;;;;;8.43;2.40;;;;;;;;;;5036694;28;20374;-57
2022/11/22 13:06:41;;;;;;;6.22;2.30;;;;;;;;;;5040063;28;20037;-57
2022/11/22 13:09:11;;;;;;;6.32;2.13;;;;;;;;;;5047441;28;20091;-55
2022/11/22 13:11:40;;;;;;;10.00;2.15;;;;;;;;;;5041536;28;20041;-56
2022/11/22 13:14:10;;;;;;;9.95;2.72;;;;;;;;;;5049322;28;20145;-57
2022/11/22 13:16:36;;;;;;;9.50;2.47;;;;;;;;;;5039785;28;20037;-57
2022/11/22 13:19:03;;;;;;;9.10;2.50;;;;;;;;;;5041665;28;20037;-57
2022/11/22 13:21:48;;;;;;;9.30;2.78;;;;;;;;;;5043483;28;20065;-57
2022/11/22 13:24:25;;;;;;;7.60;2.15;;;7.90;99.90;;;;;;5042831;28;20033;-57
2022/11/22 13:27:16;;;;;;;6.85;2.42;;;7.50;99.90;;;;;;5045291;28;20041;-57
2022/11/22 13:29:43;;;;;;;7.25;2.10;;;7.50;99.90;;;;;;5043443;28;20037;-57
2022/11/22 13:32:12;;;;;;;7.78;2.35;;;;;;;;;;5046997;28;20041;-56
2022/11/22 13:34:59;;;;;;;6.53;2.13;;;7.20;99.90;;;;;;5043467;28;20044;-57
2022/11/22 13:37:27;;;;;;;6.40;2.42;;;;;;;;;;5025841;28;20040;-57
2022/11/22 13:39:53;;;;;;;6.78;2.50;;;;;;;;;;5045520;28;20041;-57
2022/11/22 13:42:21;;;;;;;7.32;2.65;;;;;;;;;;5043673;28;20083;-56
2022/11/22 13:45:05;;;;;;;6.70;2.38;;;;;;;;;;5044603;28;20085;-57
2022/11/22 13:47:41;;;;;;;6.38;2.13;;;;;;;;;;5045886;28;20133;-57
2022/11/22 13:50:25;;;;;;;6.90;2.17;;;;;;;;;;5046238;28;20037;-57
2022/11/22 13:52:52;;;;;;;8.63;2.53;;;7.20;99.90;;;;;;5048782;28;20044;-57
2022/11/22 13:55:32;;;;;;;6.03;2.00;;;;;;;;;;5046775;28;20120;-57
2022/11/22 13:58:18;;;;;;;8.20;2.63;;;;;;;;;;5034211;28;20491;-57
2022/11/22 14:00:44;;;;;;;6.93;2.58;;;;;;;;;;5061894;22;20130;-50
2022/11/22 14:03:38;;;;;;;7.45;2.17;;;7.40;99.90;;;;;;5060381;28;20041;-50
2022/11/22 14:06:35;;;;;;;6.53;2.25;;;7.40;99.90;;;;;;5054234;28;20036;-53
2022/11/22 14:09:15;;;;;;;6.90;2.72;;;;;;;;;;5028367;28;20127;-52
2022/11/22 14:11:55;;;;;;;6.65;2.80;;;7.70;99.90;;;;;;5057013;28;20047;-54
2022/11/22 14:14:53;;;;;;;7.68;1.80;;;8.10;99.90;;;;;;5054025;28;20060;-53